Time,TemperatureF,DewpointF,PressureIn,WindDirection,WindDirectionDegrees,WindSpeedMPH,WindSpeedGustMPH,Humidity,HourlyPrecipIn,Conditions,Clouds,dailyrainin,SoftwareType,DateUTC
2013-07-22 00:08:00,54.7,53.0,30.10,SSW,197,2.0,6.0,92,0.00,,,0.00,weatherlink.com 1.10,2013-07-22 07:08:00,
2013-07-22 00:23:00,53.9,52.0,30.10,South,174,5.0,8.0,93,0.00,,,0.00,weatherlink.com 1.10,2013-07-22 07:23:00,
2013-07-22 00:38:00,53.2,52.0,30.10,South,190,3.0,6.0,94,0.00,,,0.00,weatherlink.com 1.10,2013-07-22 07:38:00,
2013-07-22 00:54:00,52.9,51.0,30.10,SW,218,3.0,4.0,94,0.00,,,0.00,weatherlink.com 1.10,2013-07-22 07:54:00,
2013-07-22 01:09:00,52.9,52.0,30.11,South,173,5.0,8.0,95,0.00,,,0.00,weatherlink.com 1.10,2013-07-22 08:09:00,
2013-07-22 01:24:00,53.2,52.0,30.11,South,187,7.0,10.0,94,0.00,,,0.00,weatherlink.com 1.10,2013-07-22 08:24:00,
2013-07-22 01:39:00,53.4,52.0,30.11,SSE,162,8.0,12.0,95,0.00,,,0.00,weatherlink.com 1.10,2013-07-22 08:39:00,
2013-07-22 01:54:00,53.0,52.0,30.11,South,181,6.0,7.0,95,0.00,,,0.00,weatherlink.com 1.10,2013-07-22 08:54:00,
2013-07-22 02:09:00,52.4,51.0,30.11,SSW,195,5.0,6.0,95,0.00,,,0.00,weatherlink.com 1.10,2013-07-22 09:09:00,
2013-07-22 02:24:00,52.3,51.0,30.11,SSW,197,4.0,7.0,96,0.00,,,0.00,weatherlink.com 1.10,2013-07-22 09:24:00,
2013-07-22 02:39:00,51.9,51.0,30.12,South,187,4.0,6.0,96,0.00,,,0.00,weatherlink.com 1.10,2013-07-22 09:39:00,
2013-07-22 02:54:00,52.0,51.0,30.12,South,174,2.0,5.0,97,0.00,,,0.00,weatherlink.com 1.10,2013-07-22 09:54:00,
2013-07-22 03:09:00,51.9,51.0,30.12,South,187,3.0,4.0,97,0.00,,,0.00,weatherlink.com 1.10,2013-07-22 10:09:00,
2013-07-22 03:24:00,51.9,51.0,30.13,South,181,5.0,6.0,97,0.00,,,0.00,weatherlink.com 1.10,2013-07-22 10:24:00,
2013-07-22 03:39:00,51.6,51.0,30.13,SSW,200,4.0,5.0,96,0.00,,,0.00,weatherlink.com 1.10,2013-07-22 10:39:00,
2013-07-22 03:54:00,51.8,51.0,30.14,South,186,5.0,6.0,97,0.00,,,0.00,weatherlink.com 1.10,2013-07-22 10:54:00,
2013-07-22 04:09:00,52.3,52.0,30.14,SSE,167,5.0,6.0,97,0.00,,,0.00,weatherlink.com 1.10,2013-07-22 11:09:00,
2013-07-22 04:24:00,52.2,51.0,30.14,South,170,4.0,7.0,97,0.00,,,0.00,weatherlink.com 1.10,2013-07-22 11:24:00,
2013-07-22 04:39:00,52.2,51.0,30.14,SSE,156,2.0,6.0,97,0.00,,,0.00,weatherlink.com 1.10,2013-07-22 11:39:00,
2013-07-22 04:54:00,52.1,51.0,30.14,SSE,162,4.0,7.0,97,0.00,,,0.00,weatherlink.com 1.10,2013-07-22 11:54:00,
2013-07-22 05:09:00,52.4,52.0,30.14,SSE,167,2.0,7.0,97,0.00,,,0.00,weatherlink.com 1.10,2013-07-22 12:09:00,
2013-07-22 05:24:00,52.3,52.0,30.15,South,191,3.0,6.0,97,0.00,,,0.00,weatherlink.com 1.10,2013-07-22 12:24:00,
2013-07-22 05:39:00,52.2,51.0,30.15,South,191,3.0,4.0,97,0.00,,,0.00,weatherlink.com 1.10,2013-07-22 12:39:00,
2013-07-22 05:54:00,52.4,52.0,30.15,South,178,4.0,6.0,97,0.00,,,0.00,weatherlink.com 1.10,2013-07-22 12:54:00,
2013-07-22 06:09:00,52.5,52.0,30.16,SSE,160,4.0,7.0,97,0.00,,,0.00,weatherlink.com 1.10,2013-07-22 13:09:00,
2013-07-22 06:24:00,52.5,52.0,30.16,South,169,5.0,5.0,97,0.00,,,0.00,weatherlink.com 1.10,2013-07-22 13:24:00,
2013-07-22 06:39:00,52.3,52.0,30.16,SSE,158,11.0,12.0,97,0.00,,,0.00,weatherlink.com 1.10,2013-07-22 13:39:00,
2013-07-22 06:54:00,52.5,52.0,30.17,SSE,158,12.0,13.0,97,0.00,,,0.00,weatherlink.com 1.10,2013-07-22 13:54:00,
2013-07-22 07:09:00,53.0,52.0,30.17,SSE,152,10.0,13.0,97,0.00,,,0.00,weatherlink.com 1.10,2013-07-22 14:09:00,
2013-07-22 07:24:00,52.7,52.0,30.18,South,169,11.0,14.0,97,0.00,,,0.00,weatherlink.com 1.10,2013-07-22 14:24:00,
2013-07-22 07:39:00,52.9,52.0,30.18,South,172,12.0,17.0,97,0.00,,,0.00,weatherlink.com 1.10,2013-07-22 14:39:00,
2013-07-22 07:54:00,52.9,52.0,30.19,South,169,11.0,15.0,97,0.00,,,0.00,weatherlink.com 1.10,2013-07-22 14:54:00,
2013-07-22 08:09:00,52.7,52.0,30.19,SSE,164,18.0,20.0,97,0.00,,,0.00,weatherlink.com 1.10,2013-07-22 15:09:00,
2013-07-22 08:24:00,52.8,52.0,30.20,SSE,160,14.0,17.0,98,0.00,,,0.00,weatherlink.com 1.10,2013-07-22 15:24:00,
2013-07-22 08:39:00,53.1,53.0,30.20,SSE,156,16.0,18.0,98,0.00,,,0.00,weatherlink.com 1.10,2013-07-22 15:39:00,
2013-07-22 08:55:00,53.3,53.0,30.21,SSE,156,15.0,16.0,98,0.00,,,0.00,weatherlink.com 1.10,2013-07-22 15:55:00,
2013-07-22 09:10:00,53.7,53.0,30.20,SSE,162,16.0,18.0,98,0.00,,,0.00,weatherlink.com 1.10,2013-07-22 16:10:00,
2013-07-22 09:25:00,53.9,53.0,30.20,SSE,160,11.0,16.0,97,0.00,,,0.00,weatherlink.com 1.10,2013-07-22 16:25:00,
2013-07-22 09:40:00,54.1,53.0,30.21,SSE,156,14.0,18.0,97,0.00,,,0.00,weatherlink.com 1.10,2013-07-22 16:40:00,
2013-07-22 09:55:00,54.5,53.0,30.21,SSE,159,13.0,17.0,96,0.00,,,0.00,weatherlink.com 1.10,2013-07-22 16:55:00,
2013-07-22 10:10:00,55.3,54.0,30.21,SSE,153,15.0,16.0,96,0.00,,,0.00,weatherlink.com 1.10,2013-07-22 17:10:00,
2013-07-22 10:25:00,55.2,54.0,30.22,SE,139,11.0,13.0,94,0.00,,,0.00,weatherlink.com 1.10,2013-07-22 17:25:00,
2013-07-22 10:40:00,55.5,54.0,30.22,SE,145,12.0,13.0,94,0.00,,,0.00,weatherlink.com 1.10,2013-07-22 17:40:00,
2013-07-22 11:10:00,56.6,54.0,30.21,SSE,165,11.0,12.0,92,0.00,,,0.00,weatherlink.com 1.10,2013-07-22 18:10:00,
2013-07-22 11:40:00,57.4,55.0,30.21,South,169,15.0,15.0,90,0.00,,,0.00,weatherlink.com 1.10,2013-07-22 18:40:00,
2013-07-22 11:55:00,57.5,55.0,30.21,SSE,167,13.0,18.0,90,0.00,,,0.00,weatherlink.com 1.10,2013-07-22 18:55:00,
2013-07-22 12:10:00,59.1,56.0,30.22,South,174,12.0,15.0,89,0.00,,,0.00,weatherlink.com 1.10,2013-07-22 19:10:00,
2013-07-22 12:25:00,60.3,57.0,30.21,South,173,12.0,14.0,87,0.00,,,0.00,weatherlink.com 1.10,2013-07-22 19:25:00,
2013-07-22 12:40:00,61.2,57.0,30.22,South,180,9.0,12.0,85,0.00,,,0.00,weatherlink.com 1.10,2013-07-22 19:40:00,
2013-07-22 12:55:00,58.8,55.0,30.22,WSW,248,10.0,11.0,87,0.00,,,0.00,weatherlink.com 1.10,2013-07-22 19:55:00,
2013-07-22 13:10:00,57.9,55.0,30.22,WSW,250,9.0,10.0,89,0.00,,,0.00,weatherlink.com 1.10,2013-07-22 20:10:00,
2013-07-22 13:25:00,58.2,54.0,30.22,WSW,248,8.0,8.0,87,0.00,,,0.00,weatherlink.com 1.10,2013-07-22 20:25:00,
2013-07-22 13:40:00,56.9,54.0,30.22,WSW,254,7.0,8.0,89,0.00,,,0.00,weatherlink.com 1.10,2013-07-22 20:40:00,
2013-07-22 13:55:00,57.0,54.0,30.22,West,260,8.0,8.0,90,0.00,,,0.00,weatherlink.com 1.10,2013-07-22 20:55:00,
2013-07-22 14:10:00,58.1,55.0,30.22,WSW,245,3.0,7.0,89,0.00,,,0.00,weatherlink.com 1.10,2013-07-22 21:10:00,
2013-07-22 14:25:00,59.5,56.0,30.21,SW,226,1.0,6.0,87,0.00,,,0.00,weatherlink.com 1.10,2013-07-22 21:25:00,
2013-07-22 14:40:00,59.4,55.0,30.21,WSW,257,7.0,7.0,86,0.00,,,0.00,weatherlink.com 1.10,2013-07-22 21:40:00,
2013-07-22 14:55:00,58.6,55.0,30.21,West,261,7.0,9.0,89,0.00,,,0.00,weatherlink.com 1.10,2013-07-22 21:55:00,
2013-07-22 15:11:00,58.8,55.0,30.21,West,259,8.0,8.0,87,0.00,,,0.00,weatherlink.com 1.10,2013-07-22 22:11:00,
2013-07-22 15:26:00,59.4,56.0,30.20,WSW,257,5.0,7.0,87,0.00,,,0.00,weatherlink.com 1.10,2013-07-22 22:26:00,
2013-07-22 15:41:00,61.0,56.0,30.20,WSW,250,6.0,8.0,84,0.00,,,0.00,weatherlink.com 1.10,2013-07-22 22:41:00,
2013-07-22 15:56:00,61.0,57.0,30.20,WSW,256,6.0,7.0,85,0.00,,,0.00,weatherlink.com 1.10,2013-07-22 22:56:00,
2013-07-22 16:11:00,61.1,57.0,30.20,West,262,6.0,7.0,86,0.00,,,0.00,weatherlink.com 1.10,2013-07-22 23:11:00,
2013-07-22 16:26:00,60.8,57.0,30.20,WSW,238,2.0,6.0,86,0.00,,,0.00,weatherlink.com 1.10,2013-07-22 23:26:00,
2013-07-22 16:41:00,62.1,58.0,30.19,SW,219,2.0,4.0,85,0.00,,,0.00,weatherlink.com 1.10,2013-07-22 23:41:00,
2013-07-22 16:56:00,63.1,58.0,30.18,SW,228,3.0,3.0,82,0.00,,,0.00,weatherlink.com 1.10,2013-07-22 23:56:00,
2013-07-22 17:11:00,63.5,58.0,30.18,WSW,250,3.0,4.0,82,0.00,,,0.00,weatherlink.com 1.10,2013-07-23 00:11:00,
2013-07-22 17:26:00,64.1,58.0,30.18,SW,222,1.0,3.0,80,0.00,,,0.00,weatherlink.com 1.10,2013-07-23 00:26:00,
2013-07-22 17:41:00,64.6,58.0,30.18,WSW,257,4.0,4.0,79,0.00,,,0.00,weatherlink.com 1.10,2013-07-23 00:41:00,
2013-07-22 17:56:00,65.7,58.0,30.17,WSW,255,4.0,5.0,77,0.00,,,0.00,weatherlink.com 1.10,2013-07-23 00:56:00,
2013-07-22 18:11:00,65.4,58.0,30.17,WSW,248,3.0,5.0,76,0.00,,,0.00,weatherlink.com 1.10,2013-07-23 01:11:00,
2013-07-22 18:26:00,65.3,58.0,30.17,WSW,252,3.0,4.0,77,0.00,,,0.00,weatherlink.com 1.10,2013-07-23 01:26:00,
2013-07-22 18:41:00,64.8,58.0,30.17,West,267,3.0,3.0,78,0.00,,,0.00,weatherlink.com 1.10,2013-07-23 01:41:00,
2013-07-22 18:56:00,65.1,58.0,30.17,West,259,4.0,4.0,77,0.00,,,0.00,weatherlink.com 1.10,2013-07-23 01:56:00,
2013-07-22 19:11:00,66.0,58.0,30.17,WSW,245,1.0,4.0,75,0.00,,,0.00,weatherlink.com 1.10,2013-07-23 02:11:00,
2013-07-22 19:26:00,66.6,58.0,30.17,WSW,240,2.0,2.0,74,0.00,,,0.00,weatherlink.com 1.10,2013-07-23 02:26:00,
2013-07-22 19:41:00,66.9,58.0,30.17,SW,228,1.0,3.0,73,0.00,,,0.00,weatherlink.com 1.10,2013-07-23 02:41:00,
2013-07-22 19:56:00,66.8,57.0,30.17,WSW,246,2.0,3.0,72,0.00,,,0.00,weatherlink.com 1.10,2013-07-23 02:56:00,
2013-07-22 20:11:00,66.1,57.0,30.17,SW,218,2.0,3.0,72,0.00,,,0.00,weatherlink.com 1.10,2013-07-23 03:11:00,
2013-07-22 20:26:00,65.0,57.0,30.17,SW,235,3.0,3.0,74,0.00,,,0.00,weatherlink.com 1.10,2013-07-23 03:26:00,
2013-07-22 20:41:00,63.3,56.0,30.17,SSW,210,2.0,3.0,78,0.00,,,0.00,weatherlink.com 1.10,2013-07-23 03:41:00,
2013-07-22 20:56:00,61.8,56.0,30.17,SW,232,3.0,4.0,81,0.00,,,0.00,weatherlink.com 1.10,2013-07-23 03:56:00,
2013-07-22 21:11:00,61.9,56.0,30.17,South,191,3.0,4.0,80,0.00,,,0.00,weatherlink.com 1.10,2013-07-23 04:11:00,
2013-07-22 21:26:00,60.9,56.0,30.18,South,191,4.0,5.0,83,0.00,,,0.00,weatherlink.com 1.10,2013-07-23 04:26:00,
2013-07-22 21:41:00,60.4,55.0,30.18,South,172,4.0,7.0,83,0.00,,,0.00,weatherlink.com 1.10,2013-07-23 04:41:00,
2013-07-22 21:56:00,60.0,55.0,30.18,SSE,152,4.0,6.0,84,0.00,,,0.00,weatherlink.com 1.10,2013-07-23 04:56:00,
2013-07-22 22:11:00,61.4,56.0,30.19,SSE,159,6.0,6.0,82,0.00,,,0.00,weatherlink.com 1.10,2013-07-23 05:11:00,
2013-07-22 22:26:00,62.0,56.0,30.19,SSE,157,3.0,5.0,80,0.00,,,0.00,weatherlink.com 1.10,2013-07-23 05:26:00,
2013-07-22 22:41:00,61.6,56.0,30.19,SE,146,4.0,5.0,81,0.00,,,0.00,weatherlink.com 1.10,2013-07-23 05:41:00,
2013-07-22 22:56:00,59.6,55.0,30.19,South,169,4.0,7.0,84,0.00,,,0.00,weatherlink.com 1.10,2013-07-23 05:56:00,
2013-07-22 23:11:00,58.3,54.0,30.19,SSW,204,1.0,3.0,86,0.00,,,0.00,weatherlink.com 1.10,2013-07-23 06:11:00,
2013-07-22 23:26:00,60.0,55.0,30.19,West,280,2.0,3.0,84,0.00,,,0.00,weatherlink.com 1.10,2013-07-23 06:26:00,
2013-07-22 23:41:00,58.0,54.0,30.20,SW,218,3.0,4.0,87,0.00,,,0.00,weatherlink.com 1.10,2013-07-23 06:41:00,
2013-07-22 23:56:00,56.8,53.0,30.20,South,188,2.0,6.0,88,0.00,,,0.00,weatherlink.com 1.10,2013-07-23 06:56:00,